Time;durP1;ratioP1;P1;durP2;ratioP2;P2;SDS_P1;SDS_P2;PMS_P1;PMS_P2;Temp;Humidity;BMP_temperature;BMP_pressure;BME280_temperature;BME280_humidity;BME280_pressure;Samples;Min_cycle;Max_cycle;Signal;HPM_P1;HPM_P2
2022/09/01 00:02:14;;;;;;;;;11.33;10.67;;;;;22.26;74.97;100460.25;4998945;28;45237;-80
2022/09/01 00:04:43;;;;;;;;;8.33;7.33;;;;;22.28;74.77;100466.44;4998887;28;45500;-75
2022/09/01 00:07:10;;;;;;;;;14.33;11.00;;;;;22.33;74.98;100478.75;4999270;28;45480;-79
2022/09/01 00:09:37;;;;;;;;;12.00;12.00;;;;;22.26;74.58;100465.59;4999274;28;45328;-67
2022/09/01 00:12:05;;;;;;;;;12.00;11.33;;;;;22.33;74.53;100472.56;4997590;28;47986;-67
2022/09/01 00:14:33;;;;;;;;;11.33;10.33;;;;;22.33;74.77;100475.22;4999494;28;45504;-67
2022/09/01 00:17:02;;;;;;;;;11.00;10.00;;;;;22.36;74.42;100478.69;4999485;28;45336;-67
2022/09/01 00:19:29;;;;;;;;;12.67;11.33;;;;;22.37;74.64;100469.78;4999664;28;45411;-67
2022/09/01 00:21:55;;;;;;;;;14.67;12.67;;;;;22.35;74.73;100460.97;4998791;28;46308;-67
2022/09/01 00:24:22;;;;;;;;;10.33;10.00;;;;;22.37;74.68;100463.59;4997389;28;45475;-67
2022/09/01 00:26:48;;;;;;;;;11.33;11.00;;;;;22.25;74.99;100435.44;4998887;28;45533;-67
2022/09/01 00:29:15;;;;;;;;;13.33;13.00;;;;;22.25;74.59;100448.75;4998215;28;45454;-67
2022/09/01 00:31:41;;;;;;;;;11.00;10.33;;;;;22.24;74.62;100465.59;4998228;28;45479;-67
2022/09/01 00:34:08;;;;;;;;;12.67;11.33;;;;;22.13;75.31;100448.97;4998322;28;45439;-67
2022/09/01 00:36:33;;;;;;;;;16.00;14.33;;;;;22.02;75.65;100426.09;5013910;28;45366;-67
2022/09/01 00:38:59;;;;;;;;;13.33;12.67;;;;;22.10;75.61;100436.56;4998084;28;45599;-79
2022/09/01 00:41:28;;;;;;;;;11.00;10.67;;;;;21.93;75.58;100415.63;4997434;28;45617;-79
2022/09/01 00:44:04;;;;;;;;;10.67;10.00;;;;;22.09;75.74;100433.97;4998848;28;45453;-80
2022/09/01 00:46:36;;;;;;;;;12.00;11.00;;;;;22.19;75.71;100440.84;4999037;28;45487;-79
2022/09/01 00:49:07;;;;;;;;;15.33;13.33;;;;;22.19;75.67;100433.75;4999294;28;45571;-80
2022/09/01 00:51:35;;;;;;;;;12.67;12.33;;;;;22.06;75.23;100402.97;4998802;28;46364;-79
2022/09/01 00:54:04;;;;;;;;;13.67;12.00;;;;;22.18;75.81;100423.13;4998770;28;45427;-67
2022/09/01 00:56:31;;;;;;;;;12.00;11.00;;;;;22.21;75.46;100426.59;4998928;28;45426;-67
2022/09/01 00:58:59;;;;;;;;;11.67;11.33;;;;;22.15;75.47;100417.88;4998160;28;45518;-67
2022/09/01 01:01:24;;;;;;;;;12.67;11.67;;;;;22.17;75.34;100416.94;4998296;28;45296;-67
2022/09/01 01:03:51;;;;;;;;;9.67;9.67;;;;;22.18;75.52;100413.38;4998159;28;45410;-67
2022/09/01 01:06:18;;;;;;;;;13.33;13.33;;;;;22.29;75.31;100428.28;4998699;28;45326;-67
2022/09/01 01:08:56;;;;;;;;;12.33;11.33;;;;;22.17;74.74;100416.06;4998547;28;45356;-78
2022/09/01 01:11:24;;;;;;;;;12.33;12.33;;;;;22.12;75.74;100421.47;4998222;28;45533;-80
2022/09/01 01:13:53;;;;;;;;;15.00;12.33;;;;;22.10;76.09;100430.38;4998184;28;45221;-79
2022/09/01 01:16:19;;;;;;;;;12.67;11.00;;;;;22.10;76.41;100430.38;4998237;28;45320;-79
2022/09/01 01:18:45;;;;;;;;;12.33;12.33;;;;;22.04;76.74;100418.06;4998421;28;45452;-68
2022/09/01 01:24:30;;;;;;;;;13.00;12.67;;;;;22.10;76.78;100435.69;4998196;28;45462;-67
2022/09/01 01:26:59;;;;;;;;;9.00;9.00;;;;;22.13;75.91;100430.34;4998029;28;45363;-67
2022/09/01 01:29:31;;;;;;;;;9.00;9.00;;;;;22.14;76.29;100421.44;4997715;28;45368;-67
2022/09/01 01:31:56;;;;;;;;;11.67;11.00;;;;;22.02;76.70;100409.25;4997933;28;45518;-67
2022/09/01 01:34:23;;;;;;;;;12.33;11.33;;;;;21.92;77.22;100403.22;4997558;28;45408;-67
2022/09/01 01:36:50;;;;;;;;;12.33;12.33;;;;;22.03;76.84;100417.19;4998073;28;45338;-67
2022/09/01 01:39:21;;;;;;;;;11.67;11.00;;;;;22.02;77.13;100427.88;4998177;28;45455;-80
2022/09/01 01:41:50;;;;;;;;;13.00;10.67;;;;;21.95;76.73;100416.47;4996754;28;46226;-78
2022/09/01 01:44:19;;;;;;;;;12.00;12.00;;;;;21.99;77.06;100415.50;4997700;28;45452;-79
2022/09/01 01:46:51;;;;;;;;;13.67;13.33;;;;;22.07;76.64;100428.66;4997884;28;45289;-68
2022/09/01 01:49:19;;;;;;;;;11.67;10.67;;;;;22.01;77.11;100418.16;4996647;28;45572;-79
2022/09/01 01:51:54;;;;;;;;;14.00;13.00;;;;;21.89;76.66;100402.44;4997617;28;45456;-79
2022/09/01 01:54:21;;;;;;;;;12.00;12.00;;;;;21.96;76.98;100412.91;4995920;28;46026;-80
2022/09/01 01:56:47;;;;;;;;;10.33;9.67;;;;;21.85;76.43;100390.97;4997718;28;45364;-79
2022/09/01 01:59:15;;;;;;;;;11.00;11.00;;;;;21.96;76.53;100401.38;4997384;28;45321;-75
2022/09/01 02:01:47;;;;;;;;;11.33;10.67;;;;;22.00;75.99;100411.97;4997508;28;46641;-79
2022/09/01 02:04:15;;;;;;;;;11.67;10.00;;;;;22.05;76.66;100420.72;4996114;28;45488;-77
2022/09/01 02:06:44;;;;;;;;;9.33;8.67;;;;;22.02;75.83;100415.47;4997554;28;45474;-79
2022/09/01 02:09:11;;;;;;;;;13.33;13.00;;;;;22.03;76.29;100422.53;4997570;28;45534;-79
2022/09/01 02:11:36;;;;;;;;;13.67;12.33;;;;;21.92;76.86;100408.53;4997570;28;46150;-80
2022/09/01 02:14:03;;;;;;;;;11.00;11.00;;;;;21.90;77.51;100415.66;4995811;28;45458;-79
2022/09/01 02:16:31;;;;;;;;;13.67;11.00;;;;;21.84;77.47;100413.13;4997305;28;45666;-79
2022/09/01 02:18:58;;;;;;;;;12.00;11.33;;;;;21.79;77.43;100417.69;4997366;28;45381;-79
2022/09/01 02:21:25;;;;;;;;;13.33;13.00;;;;;21.75;77.81;100416.84;5012300;28;46790;-80
2022/09/01 02:24:04;;;;;;;;;14.67;13.33;;;;;21.63;78.83;100404.66;4997053;28;45369;-79
2022/09/01 02:26:41;;;;;;;;;11.00;11.00;;;;;21.50;79.40;100386.28;4997269;28;45412;-80
2022/09/01 02:29:16;;;;;;;;;14.00;13.67;;;;;21.59;79.31;100400.28;4997115;28;45439;-79
2022/09/01 02:31:43;;;;;;;;;16.00;13.33;;;;;21.50;78.96;100394.25;4996917;28;45582;-79
2022/09/01 02:34:12;;;;;;;;;14.67;13.00;;;;;21.57;79.06;100399.44;4997353;28;45422;-67
2022/09/01 02:36:46;;;;;;;;;13.67;12.33;;;;;21.48;79.29;100385.44;4997483;28;45218;-80
2022/09/01 02:39:17;;;;;;;;;12.67;12.33;;;;;21.53;79.36;100394.22;4996954;28;45552;-79
2022/09/01 02:41:43;;;;;;;;;13.67;13.33;;;;;21.41;79.07;100382.00;4996623;28;46435;-78
2022/09/01 02:44:13;;;;;;;;;12.00;11.33;;;;;21.39;79.80;100375.81;4997050;28;45466;-72
2022/09/01 02:46:44;;;;;;;;;12.33;12.00;;;;;21.51;79.08;100380.09;4997129;28;45514;-79
2022/09/01 02:49:16;;;;;;;;;14.00;12.33;;;;;21.56;78.63;100379.06;4996206;28;45809;-68
2022/09/01 02:51:47;;;;;;;;;12.00;11.00;;;;;21.54;78.84;100364.94;4996829;28;45255;-79
2022/09/01 02:54:18;;;;;;;;;10.67;10.67;;;;;21.73;77.98;100386.75;4999443;28;45618;-74
2022/09/01 02:56:47;;;;;;;;;12.67;11.00;;;;;21.75;77.38;100387.59;5000404;28;45541;-79
2022/09/01 02:59:20;;;;;;;;;13.67;11.33;;;;;21.80;77.95;100398.16;4999862;28;45526;-79
2022/09/01 03:01:47;;;;;;;;;12.67;10.00;;;;;21.69;78.63;100376.22;4999999;28;45981;-79
2022/09/01 03:04:13;;;;;;;;;14.67;13.33;;;;;21.81;77.61;100398.13;5000021;28;45300;-77
2022/09/01 03:06:39;;;;;;;;;13.33;12.67;;;;;21.84;77.58;100399.84;5000521;28;45392;-79
2022/09/01 03:09:08;;;;;;;;;11.00;10.00;;;;;21.78;77.60;100378.69;4999186;28;45505;-79
2022/09/01 03:11:37;;;;;;;;;12.33;12.33;;;;;21.85;77.41;100391.84;5000122;28;46023;-78
2022/09/01 03:14:06;;;;;;;;;12.67;12.00;;;;;21.86;77.36;100387.38;4999972;28;45639;-79
2022/09/01 03:16:32;;;;;;;;;12.00;11.33;;;;;21.73;77.63;100361.97;4999997;28;45451;-78
2022/09/01 03:18:58;;;;;;;;;14.00;13.33;;;;;21.88;77.13;100380.25;5000330;28;45313;-79
2022/09/01 03:21:25;;;;;;;;;15.00;12.67;;;;;21.80;77.07;100358.25;4999949;28;45465;-79
2022/09/01 03:23:51;;;;;;;;;12.67;11.00;;;;;21.84;77.23;100373.25;4999916;28;45452;-80
2022/09/01 03:26:20;;;;;;;;;14.00;12.00;;;;;21.85;76.65;100367.91;5000015;28;45515;-79
2022/09/01 03:28:47;;;;;;;;;10.33;10.00;;;;;21.87;76.92;100369.66;4999646;28;45480;-79
2022/09/01 03:31:14;;;;;;;;;11.00;10.33;;;;;21.84;77.25;100363.50;4999749;28;45567;-67
2022/09/01 03:33:40;;;;;;;;;10.00;10.00;;;;;21.77;76.89;100356.53;5000110;28;45554;-80
2022/09/01 03:36:07;;;;;;;;;12.33;10.00;;;;;21.82;77.08;100351.13;4999746;28;45528;-74
2022/09/01 03:38:33;;;;;;;;;12.00;12.00;;;;;21.67;77.49;100332.84;5000025;28;45968;-79
2022/09/01 03:41:02;;;;;;;;;13.67;12.00;;;;;21.60;76.87;100319.63;4999297;28;45558;-67
2022/09/01 03:43:28;;;;;;;;;14.00;12.67;;;;;;;;4999734;28;45358;-67
2022/09/01 03:45:56;;;;;;;;;12.33;12.00;;;;;21.81;76.90;100352.91;4999890;28;45504;-67
2022/09/01 03:48:27;;;;;;;;;12.33;12.33;;;;;21.82;77.13;100349.34;4998482;28;45606;-67
2022/09/01 03:50:55;;;;;;;;;9.33;8.67;;;;;21.85;76.89;100348.41;4999514;28;45482;-67
2022/09/01 03:53:26;;;;;;;;;8.67;8.00;;;;;21.78;77.39;100330.81;4998173;28;45289;-67
2022/09/01 03:55:53;;;;;;;;;13.67;12.67;;;;;21.85;77.52;100343.09;4999303;28;45297;-74
2022/09/01 03:58:19;;;;;;;;;12.00;11.33;;;;;21.72;77.67;100323.84;4999398;28;45372;-79
2022/09/01 04:00:54;;;;;;;;;11.00;10.33;;;;;21.77;77.42;100337.06;4999420;28;46139;-78
2022/09/01 04:03:21;;;;;;;;;13.00;12.00;;;;;21.78;77.91;100336.13;4999115;28;45484;-79
2022/09/01 04:05:49;;;;;;;;;12.33;11.00;;;;;21.84;77.56;100341.34;4998601;28;45487;-80
2022/09/01 04:08:16;;;;;;;;;10.00;10.00;;;;;21.84;77.61;100333.34;4999594;28;45218;-77
2022/09/01 04:10:49;;;;;;;;;12.33;11.67;;;;;21.84;77.32;100336.91;5014572;28;45595;-80
2022/09/01 04:13:17;;;;;;;;;11.00;10.67;;;;;21.84;77.19;100328.03;4999464;28;45530;-79
2022/09/01 04:15:43;;;;;;;;;8.67;8.67;;;;;21.84;77.18;100330.69;4999443;28;45634;-79
2022/09/01 04:18:09;;;;;;;;;11.00;11.00;;;;;21.75;77.14;100312.28;4999325;28;45230;-79
2022/09/01 04:20:49;;;;;;;;;7.67;6.67;;;;;21.78;77.49;100321.06;4999156;28;45527;-74
2022/09/01 04:23:32;;;;;;;;;13.00;11.00;;;;;21.72;77.78;100315.00;5014669;28;45421;-72
2022/09/01 04:26:08;;;;;;;;;13.67;12.33;;;;;21.60;78.61;100303.69;4999181;28;45387;-80
2022/09/01 04:28:37;;;;;;;;;12.33;12.00;;;;;21.52;78.49;100305.63;4999003;28;45522;-73
2022/09/01 04:31:07;;;;;;;;;13.00;12.67;;;;;21.38;77.84;100295.22;4997365;28;45466;-79
2022/09/01 04:33:37;;;;;;;;;12.00;10.67;;;;;21.49;75.31;100296.81;4998499;28;45419;-79
2022/09/01 04:36:29;;;;;;;;;8.00;8.00;;;;;21.41;75.72;100300.47;4998776;28;45388;-71
2022/09/01 04:39:00;;;;;;;;;9.33;9.00;;;;;21.34;76.00;100297.97;4999020;28;45369;-78
2022/09/01 04:41:31;;;;;;;;;10.00;9.00;;;;;21.35;76.50;100310.34;4998520;28;46213;-79
2022/09/01 04:44:03;;;;;;;;;18.67;18.67;;;;;21.39;76.82;100298.75;4998597;28;45364;-77
2022/09/01 04:46:34;;;;;;;;;12.33;12.33;;;;;21.34;77.15;100290.00;4998780;28;45411;-79
2022/09/01 04:49:06;;;;;;;;;11.33;11.00;;;;;21.41;77.62;100295.16;4998683;28;45587;-79
2022/09/01 04:51:32;;;;;;;;;12.33;12.33;;;;;21.38;76.99;100286.38;4998462;28;45435;-79
2022/09/01 04:53:58;;;;;;;;;12.33;12.33;;;;;21.45;76.78;100293.38;4998456;28;45274;-79
2022/09/01 04:56:25;;;;;;;;;11.67;10.00;;;;;21.40;76.38;100269.47;4997182;28;45387;-78
2022/09/01 04:58:54;;;;;;;;;12.67;12.00;;;;;21.47;75.60;100280.94;4996966;28;45592;-79
2022/09/01 05:01:26;;;;;;;;;10.67;10.00;;;;;21.44;74.97;100283.63;4997807;28;46023;-78
2022/09/01 05:04:00;;;;;;;;;8.33;7.00;;;;;21.41;74.49;100281.00;4998512;28;45290;-79
2022/09/01 05:06:27;;;;;;;;;9.00;8.00;;;;;21.28;74.90;100272.38;4998385;28;45443;-79
2022/09/01 05:08:56;;;;;;;;;13.67;13.00;;;;;21.26;75.48;100282.16;4998786;28;45337;-80
2022/09/01 05:11:22;;;;;;;;;12.33;9.67;;;;;21.20;75.33;100284.94;4998031;28;45478;-69
2022/09/01 05:13:49;;;;;;;;;12.67;11.33;;;;;21.02;75.96;100249.81;4998481;28;46023;-77
2022/09/01 05:16:19;;;;;;;;;11.33;10.33;;;;;21.24;75.58;100282.19;5001770;28;45447;-79
2022/09/01 05:18:47;;;;;;;;;8.00;8.00;;;;;21.18;74.63;100255.72;4988435;28;45431;-74
2022/09/01 05:21:16;;;;;;;;;12.00;9.33;;;;;21.29;73.90;100263.53;4984882;28;48063;-79
2022/09/01 05:23:46;;;;;;;;;9.00;9.00;;;;;21.19;74.49;100254.84;4987241;28;45540;-73
2022/09/01 05:26:18;;;;;;;;;9.00;8.33;;;;;21.21;74.67;100265.44;4988344;28;46156;-80
2022/09/01 05:28:46;;;;;;;;;12.33;11.00;;;;;21.18;74.57;100265.47;4987491;28;45430;-77
2022/09/01 05:31:12;;;;;;;;;11.67;10.00;;;;;20.97;75.02;100241.06;4988457;28;45415;-72
2022/09/01 05:33:44;;;;;;;;;12.00;11.67;;;;;21.00;75.58;100256.06;4986680;28;45312;-75
2022/09/01 05:36:12;;;;;;;;;12.67;12.67;;;;;21.03;76.24;100261.34;5001265;28;45336;-67
2022/09/01 05:38:41;;;;;;;;;13.67;13.33;;;;;21.14;77.18;100269.09;5005173;28;45591;-78
2022/09/01 05:41:09;;;;;;;;;11.67;11.67;;;;;21.13;76.40;100262.03;5013933;28;46995;-68
2022/09/01 05:43:36;;;;;;;;;15.00;12.00;;;;;21.18;76.88;100270.78;4984952;28;45604;-79
2022/09/01 05:46:07;;;;;;;;;10.33;10.33;;;;;21.20;76.64;100269.84;4986933;28;45786;-78
2022/09/01 05:48:38;;;;;;;;;14.67;10.00;;;;;21.20;77.05;100269.84;4986063;28;45479;-77
2022/09/01 05:51:09;;;;;;;;;13.00;12.00;;;;;21.22;76.68;100270.69;4987249;28;45591;-78
2022/09/01 05:53:34;;;;;;;;;10.67;9.33;;;;;21.20;76.59;100243.28;4984108;28;45528;-78
2022/09/01 05:56:05;;;;;;;;;11.67;10.33;;;;;21.24;76.71;100250.28;4986974;28;45408;-79
2022/09/01 05:58:33;;;;;;;;;10.67;9.67;;;;;21.38;75.81;100262.44;4986865;28;45439;-76
2022/09/01 06:01:00;;;;;;;;;12.00;12.00;;;;;21.44;75.65;100270.34;5001030;28;45866;-71
2022/09/01 06:03:26;;;;;;;;;13.33;13.00;;;;;21.40;75.98;100255.31;5000388;28;45510;-78
2022/09/01 06:05:54;;;;;;;;;11.33;11.33;;;;;21.35;75.70;100247.47;4985942;28;45400;-79
2022/09/01 06:08:24;;;;;;;;;12.00;11.00;;;;;21.47;75.81;100272.06;4987039;28;45554;-68
2022/09/01 06:10:51;;;;;;;;;14.67;12.67;;;;;21.40;76.07;100258.84;4985955;28;46151;-78
2022/09/01 06:13:20;;;;;;;;;10.67;10.00;;;;;21.41;75.23;100249.13;4985435;28;45839;-72
2022/09/01 06:15:47;;;;;;;;;12.67;11.67;;;;;21.53;75.45;100272.84;4986765;28;45506;-77
2022/09/01 06:18:13;;;;;;;;;12.00;11.33;;;;;21.52;75.72;100268.41;4985518;28;45412;-71
2022/09/01 06:20:41;;;;;;;;;12.67;11.67;;;;;21.58;75.26;100270.06;4986266;28;46203;-75
2022/09/01 06:23:06;;;;;;;;;16.33;15.00;;;;;21.57;75.23;100273.66;4984005;28;45502;-68
2022/09/01 06:25:35;;;;;;;;;13.67;12.00;;;;;21.54;74.75;100255.09;4984921;28;45454;-67
2022/09/01 06:28:03;;;;;;;;;15.00;14.33;;;;;21.56;75.13;100264.78;4986814;28;45437;-78
2022/09/01 06:30:29;;;;;;;;;13.33;13.00;;;;;21.62;75.08;100274.41;4989476;28;46074;-78
2022/09/01 06:32:55;;;;;;;;;11.67;9.67;;;;;21.48;74.84;100249.91;4996266;28;45424;-67
2022/09/01 06:35:28;;;;;;;;;3.00;2.33;;;;;21.65;74.14;100275.25;4996964;28;45480;-67
2022/09/01 06:37:55;;;;;;;;;9.00;7.67;;;;;21.54;73.87;100247.13;4997389;28;45438;-67
2022/09/01 06:40:24;;;;;;;;;16.00;13.33;;;;;21.59;74.30;100255.91;4996912;28;45381;-67
2022/09/01 06:42:51;;;;;;;;;11.33;10.33;;;;;21.79;74.66;100268.78;4997326;28;45330;-67
2022/09/01 06:45:19;;;;;;;;;10.00;9.33;;;;;21.77;73.82;100254.63;4997454;28;45234;-67
2022/09/01 06:47:47;;;;;;;;;12.67;10.67;;;;;21.95;73.82;100267.53;4997103;28;45305;-79
2022/09/01 06:50:14;;;;;;;;;12.67;12.00;;;;;22.01;73.34;100275.38;4996665;28;46123;-79
2022/09/01 06:52:42;;;;;;;;;12.00;11.67;;;;;22.11;72.88;100277.84;4996731;28;45168;-78
2022/09/01 06:55:10;;;;;;;;;11.00;10.33;;;;;22.16;73.06;100276.84;4996737;28;45388;-78
2022/09/01 06:57:37;;;;;;;;;11.00;10.33;;;;;22.24;73.34;100279.34;4997195;28;45400;-78
2022/09/01 07:00:19;;;;;;;;;20.33;18.33;;;;;22.23;73.17;100264.28;4996006;28;45404;-74
2022/09/01 07:02:54;;;;;;;;;12.33;11.00;;;;;22.33;72.99;100286.28;4992049;28;45457;-67
2022/09/01 07:05:20;;;;;;;;;10.33;10.33;;;;;22.15;72.56;100239.63;4977418;28;45416;-71
2022/09/01 07:07:54;;;;;;;;;16.00;13.00;;;;;22.44;72.69;100286.88;4992107;28;45660;-70
2022/09/01 07:10:26;;;;;;;;;14.33;12.00;;;;;22.41;72.67;100257.69;4975933;28;46568;-70
2022/09/01 07:12:54;;;;;;;;;11.67;10.67;;;;;22.57;72.43;100264.38;4997104;28;45498;-71
2022/09/01 07:15:23;;;;;;;;;14.33;11.33;;;;;22.58;72.07;100267.91;4995532;28;45519;-71
2022/09/01 07:17:54;;;;;;;;;9.00;8.67;;;;;22.70;71.85;100282.72;4995519;28;45593;-73
2022/09/01 07:20:25;;;;;;;;;13.33;10.00;;;;;22.75;70.80;100260.41;4995857;28;45445;-74
2022/09/01 07:22:54;;;;;;;;;10.33;10.00;;;;;22.96;70.60;100282.97;4995760;28;45478;-73
2022/09/01 07:25:19;;;;;;;;;12.33;11.33;;;;;23.02;70.14;100266.00;4995189;28;45451;-71
2022/09/01 07:27:49;;;;;;;;;13.67;13.33;;;;;23.02;70.52;100258.00;4993583;28;45491;-69
2022/09/01 07:30:20;;;;;;;;;13.67;12.00;;;;;23.21;69.91;100277.91;4994200;28;45652;-71
2022/09/01 07:32:47;;;;;;;;;15.00;13.33;;;;;23.15;70.66;100266.53;4994584;28;45476;-71
2022/09/01 07:35:17;;;;;;;;;14.33;12.00;;;;;23.16;71.23;100279.81;4994389;28;45491;-72
2022/09/01 07:37:43;;;;;;;;;14.33;12.67;;;;;23.24;71.05;100263.66;4994709;28;45447;-73
2022/09/01 07:40:16;;;;;;;;;12.33;11.33;;;;;23.41;70.41;100266.69;4996303;28;46081;-71
2022/09/01 07:42:42;;;;;;;;;12.33;11.33;;;;;23.57;69.57;100264.47;5001265;28;45427;-71
2022/09/01 07:45:10;;;;;;;;;14.00;12.67;;;;;23.59;68.96;100253.78;5000241;28;45455;-71
2022/09/01 07:47:36;;;;;;;;;12.67;10.67;;;;;23.78;68.72;100252.38;5007903;28;45603;-71
2022/09/01 07:50:09;;;;;;;;;12.00;11.00;;;;;24.05;67.99;100265.78;5006203;28;46507;-71
2022/09/01 07:52:42;;;;;;;;;11.33;10.33;;;;;24.15;67.59;100267.28;5004653;28;45581;-71
2022/09/01 07:55:12;;;;;;;;;14.00;12.00;;;;;24.30;66.86;100271.25;5021292;28;45932;-71
2022/09/01 07:57:41;;;;;;;;;14.67;12.00;;;;;24.16;66.10;100228.13;5006007;28;45522;-72
2022/09/01 08:00:10;;;;;;;;;11.33;11.33;;;;;24.22;66.95;100242.13;5007422;28;46071;-70
2022/09/01 08:02:37;;;;;;;;;15.67;14.33;;;;;24.48;66.38;100272.47;5007090;28;45538;-72
2022/09/01 08:05:08;;;;;;;;;16.33;15.67;;;;;24.53;66.34;100267.91;5006042;28;45604;-71
2022/09/01 08:07:36;;;;;;;;;14.33;12.00;;;;;24.60;65.71;100269.44;5006220;28;45308;-73
2022/09/01 08:10:06;;;;;;;;;13.00;12.67;;;;;24.72;65.18;100272.66;5005900;28;45948;-73
2022/09/01 08:12:32;;;;;;;;;11.33;11.00;;;;;24.75;64.73;100270.75;5019120;28;45726;-72
2022/09/01 08:14:58;;;;;;;;;11.00;10.67;;;;;24.78;64.94;100251.06;5022421;28;46544;-73
2022/09/01 08:17:23;;;;;;;;;9.67;9.00;;;;;24.92;64.65;100248.81;5005810;28;45490;-70
2022/09/01 08:19:49;;;;;;;;;9.00;8.00;;;;;25.17;64.14;100251.50;5007450;28;46238;-71
2022/09/01 08:22:15;;;;;;;;;1.00;0.00;;;;;25.37;63.04;100239.28;5006350;28;45598;-72
2022/09/01 08:24:41;;;;;;;;;10.67;10.67;;;;;25.84;61.01;100249.13;5020694;28;45498;-70
2022/09/01 08:27:07;;;;;;;;;12.00;11.00;;;;;26.50;59.75;100271.56;5007663;28;45546;-73
2022/09/01 08:29:33;;;;;;;;;12.33;12.00;;;;;27.22;57.51;100261.44;5005332;28;46390;-71
2022/09/01 08:31:58;;;;;;;;;9.67;9.67;;;;;28.17;56.25;100265.22;5006831;28;45467;-76
2022/09/01 08:34:25;;;;;;;;;10.00;8.33;;;;;30.31;50.80;100249.69;5006048;28;45715;-76
2022/09/01 08:36:51;;;;;;;;;9.33;9.33;;;;;31.54;45.87;100256.91;5007517;28;45475;-73
2022/09/01 08:39:17;;;;;;;;;3.33;3.33;;;;;30.76;46.37;100262.41;5006995;28;45513;-72
2022/09/01 08:42:04;;;;;;;;;8.00;8.00;;;;;30.35;48.61;100263.00;5005093;28;45543;-72
2022/09/01 08:44:40;;;;;;;;;7.67;7.67;;;;;29.61;46.12;100267.88;5002255;28;45502;-74
2022/09/01 08:47:13;;;;;;;;;8.33;8.00;;;;;28.99;47.40;100263.91;5005171;28;45463;-72
2022/09/01 08:49:39;;;;;;;;;9.33;8.67;;;;;28.62;48.38;100268.47;5005198;28;46367;-72
2022/09/01 08:52:20;;;;;;;;;10.33;9.67;;;;;28.35;49.55;100258.09;5012316;28;45462;-72
2022/09/01 08:54:49;;;;;;;;;9.00;8.33;;;;;27.87;49.25;100254.06;5028519;28;45403;-72
2022/09/01 08:57:44;;;;;;;;;10.00;9.00;;;;;27.70;49.75;100265.59;4996976;28;45747;-73
2022/09/01 09:00:14;;;;;;;;;8.67;8.00;;;;;27.64;50.28;100264.06;4997899;28;46253;-74
2022/09/01 09:02:49;;;;;;;;;9.00;8.67;;;;;27.57;50.91;100249.16;5007706;28;45363;-70
2022/09/01 09:05:30;;;;;;;;;9.00;8.33;;;;;27.88;50.60;100270.16;5004990;28;45512;-71
2022/09/01 09:08:17;;;;;;;;;9.00;9.00;;;;;27.98;49.81;100269.72;5001464;28;45337;-70
2022/09/01 09:10:57;;;;;;;;;9.33;8.33;;;;;28.03;50.42;100276.59;5013253;28;45564;-72
2022/09/01 09:13:44;;;;;;;;;11.67;10.00;;;;;27.83;50.10;100271.25;5010653;28;45431;-71
2022/09/01 09:16:22;;;;;;;;;13.00;11.33;;;;;27.92;50.11;100271.75;5003597;28;45400;-71
2022/09/01 09:18:55;;;;;;;;;20.00;18.67;;;;;27.96;50.51;100270.66;5008461;28;45400;-72
2022/09/01 09:21:36;;;;;;;;;9.00;9.00;;;;;28.21;49.28;100277.53;5015513;28;45423;-74
2022/09/01 09:24:45;;;;;;;;;8.67;8.33;;;;;28.43;48.83;100276.53;5016813;28;45393;-76
2022/09/01 09:27:21;;;;;;;;;8.67;8.00;;;;;28.77;48.66;100275.78;5009209;28;45462;-71
2022/09/01 09:29:51;;;;;;;;;9.67;8.33;;;;;29.07;47.29;100270.66;5001679;28;45471;-73
2022/09/01 09:32:17;;;;;;;;;8.67;8.67;;;;;29.19;46.61;100271.00;5006725;28;45506;-72
2022/09/01 09:34:43;;;;;;;;;10.33;10.00;;;;;29.35;45.99;100253.13;5003823;28;45650;-70
2022/09/01 09:37:35;;;;;;;;;22.33;21.67;;;;;29.47;46.98;100260.53;5022269;28;45477;-73
2022/09/01 09:40:06;;;;;;;;;10.67;9.67;;;;;29.79;46.75;100266.03;4990627;28;45500;-71
2022/09/01 09:42:32;;;;;;;;;11.33;8.33;;;;;30.04;45.74;100259.28;4976993;28;45667;-73
2022/09/01 09:44:58;;;;;;;;;8.67;8.67;;;;;29.99;45.15;100242.53;4977292;28;45454;-70
2022/09/01 09:47:41;;;;;;;;;9.00;9.00;;;;;30.05;46.43;100261.03;4976317;28;45516;-73
2022/09/01 09:50:14;;;;;;;;;9.00;8.00;;;;;30.02;45.36;100256.66;4977726;28;45495;-73
2022/09/01 09:52:39;;;;;;;;;8.00;7.67;;;;;30.22;44.67;100257.38;4977783;28;45360;-73
2022/09/01 09:55:29;;;;;;;;;9.00;9.00;;;;;30.37;44.73;100255.69;4977723;28;45205;-71
2022/09/01 09:58:07;;;;;;;;;8.67;8.00;;;;;30.39;43.91;100249.25;4977839;28;45416;-72
2022/09/01 10:00:34;;;;;;;;;9.00;7.33;;;;;30.22;45.11;100247.50;4994563;28;45496;-71
2022/09/01 10:03:01;;;;;;;;;8.00;7.33;;;;;30.37;45.14;100248.47;4996725;28;45528;-71
2022/09/01 10:05:50;;;;;;;;;9.00;9.00;;;;;30.26;43.94;100249.06;4997421;28;45292;-74
2022/09/01 10:08:36;;;;;;;;;9.00;8.33;;;;;30.43;43.91;100253.50;4996763;28;45307;-73
2022/09/01 10:11:04;;;;;;;;;9.00;9.00;;;;;30.91;43.89;100235.44;4997500;28;45428;-71
2022/09/01 10:13:31;;;;;;;;;7.67;7.00;;;;;31.01;43.65;100216.88;4997110;28;45445;-70
2022/09/01 10:16:01;;;;;;;;;10.00;8.00;;;;;31.33;42.63;100217.59;4996834;28;45483;-72
2022/09/01 10:18:36;;;;;;;;;8.67;8.00;;;;;31.72;42.04;100236.84;4997013;28;45435;-71
2022/09/01 10:21:05;;;;;;;;;10.67;10.33;;;;;32.01;42.15;100239.53;4997407;28;45346;-71
2022/09/01 10:23:33;;;;;;;;;7.00;7.00;;;;;32.77;40.41;100235.47;4996863;28;45551;-73
2022/09/01 10:26:05;;;;;;;;;10.33;9.33;;;;;33.44;38.58;100228.09;4997173;28;45452;-71
2022/09/01 10:28:32;;;;;;;;;10.67;9.33;;;;;32.64;38.90;100222.78;4996557;28;45323;-71
2022/09/01 10:31:00;;;;;;;;;9.33;8.00;;;;;32.50;40.49;100212.00;4998906;28;45589;-74
2022/09/01 10:33:25;;;;;;;;;8.00;7.00;;;;;32.36;40.26;100215.59;4995229;28;46868;-73
2022/09/01 10:35:53;;;;;;;;;9.00;9.00;;;;;32.35;40.10;100203.09;4996468;28;45440;-73
2022/09/01 10:38:23;;;;;;;;;9.00;9.00;;;;;33.07;39.22;100222.56;4995550;28;45293;-73
2022/09/01 10:41:05;;;;;;;;;7.33;7.00;;;;;33.48;38.95;100207.97;4997269;28;45309;-73
2022/09/01 10:43:40;;;;;;;;;7.00;6.00;;;;;34.23;38.58;100214.38;4997106;28;45701;-73
2022/09/01 10:46:41;;;;;;;;;8.33;8.33;;;;;35.64;35.52;100208.06;5011622;28;45426;-73
2022/09/01 10:49:26;;;;;;;;;9.00;8.33;;;;;35.86;35.22;100199.06;4996500;28;45520;-73
2022/09/01 10:51:53;;;;;;;;;7.67;7.00;;;;;35.81;34.50;100195.84;4996857;28;45224;-73
2022/09/01 10:54:37;;;;;;;;;8.67;8.00;;;;;35.82;34.65;100193.00;4995125;28;45480;-74
2022/09/01 10:57:20;;;;;;;;;6.00;5.00;;;;;35.68;34.48;100192.41;4996660;28;45460;-72
2022/09/01 10:59:46;;;;;;;;;8.33;8.00;;;;;35.42;34.10;100184.47;4984544;28;45459;-71
2022/09/01 11:02:17;;;;;;;;;10.00;9.67;;;;;34.75;35.56;100158.03;4975655;28;45362;-71
2022/09/01 11:04:46;;;;;;;;;8.67;8.00;;;;;34.98;35.49;100180.69;4976372;28;46415;-72
2022/09/01 11:07:17;;;;;;;;;7.67;7.67;;;;;34.82;35.71;100176.44;4976737;28;45493;-73
2022/09/01 11:10:06;;;;;;;;;8.00;7.33;;;;;34.48;34.80;100161.88;4976896;28;45376;-72
2022/09/01 11:13:04;;;;;;;;;9.00;8.00;;;;;33.76;35.87;100168.06;4992398;28;45523;-73
2022/09/01 11:15:35;;;;;;;;;8.33;8.33;;;;;33.40;37.33;100175.16;4977901;28;47044;-70
2022/09/01 11:18:06;;;;;;;;;7.33;7.00;;;;;33.64;37.26;100168.97;4978743;28;45388;-73
2022/09/01 11:20:38;;;;;;;;;8.00;8.00;;;;;33.88;37.25;100167.19;4980427;28;45339;-72
2022/09/01 11:23:29;;;;;;;;;6.33;6.00;;;;;33.72;37.10;100163.00;4980675;28;45506;-73
2022/09/01 11:26:33;;;;;;;;;7.67;7.67;;;;;33.40;36.22;100160.75;4978641;28;46260;-74
2022/09/01 11:28:59;;;;;;;;;7.00;7.00;;;;;32.99;38.21;100154.56;4978570;28;45245;-73
2022/09/01 11:31:31;;;;;;;;;9.00;8.33;;;;;32.64;39.13;100155.16;4998478;28;45379;-73
2022/09/01 11:34:18;;;;;;;;;7.00;6.67;;;;;32.93;39.08;100144.19;4998241;28;45548;-73